sensor_id;sensor_type;location;lat;lon;timestamp;temperature;humidity
10472;DHT22;5283;48.876;8.962;2024-03-08T00:00:19;3.10;99.90
10472;DHT22;5283;48.876;8.962;2024-03-08T00:02:46;3.00;99.90
10472;DHT22;5283;48.876;8.962;2024-03-08T00:05:14;2.90;99.90
10472;DHT22;5283;48.876;8.962;2024-03-08T00:07:42;2.90;99.90
10472;DHT22;5283;48.876;8.962;2024-03-08T00:10:11;2.80;99.90
10472;DHT22;5283;48.876;8.962;2024-03-08T00:12:43;2.90;99.90
10472;DHT22;5283;48.876;8.962;2024-03-08T00:15:14;2.80;99.90
10472;DHT22;5283;48.876;8.962;2024-03-08T00:17:42;2.80;99.90
10472;DHT22;5283;48.876;8.962;2024-03-08T00:20:09;2.70;99.90
10472;DHT22;5283;48.876;8.962;2024-03-08T00:22:37;2.60;99.90
10472;DHT22;5283;48.876;8.962;2024-03-08T00:25:05;2.50;99.90
10472;DHT22;5283;48.876;8.962;2024-03-08T00:27:35;2.50;99.90
10472;DHT22;5283;48.876;8.962;2024-03-08T00:30:03;2.40;99.90
10472;DHT22;5283;48.876;8.962;2024-03-08T00:32:29;2.40;99.90
10472;DHT22;5283;48.876;8.962;2024-03-08T00:34:58;2.20;99.90
10472;DHT22;5283;48.876;8.962;2024-03-08T00:37:25;2.10;99.90
10472;DHT22;5283;48.876;8.962;2024-03-08T00:39:52;2.00;99.90
10472;DHT22;5283;48.876;8.962;2024-03-08T00:42:19;1.90;99.90
10472;DHT22;5283;48.876;8.962;2024-03-08T00:44:47;2.00;99.90
10472;DHT22;5283;48.876;8.962;2024-03-08T00:47:14;2.00;99.90
10472;DHT22;5283;48.876;8.962;2024-03-08T00:49:41;1.90;99.90
10472;DHT22;5283;48.876;8.962;2024-03-08T00:52:08;2.00;99.90
10472;DHT22;5283;48.876;8.962;2024-03-08T00:54:35;2.00;99.90
10472;DHT22;5283;48.876;8.962;2024-03-08T00:57:05;2.00;99.90
10472;DHT22;5283;48.876;8.962;2024-03-08T00:59:33;1.80;99.90
10472;DHT22;5283;48.876;8.962;2024-03-08T01:02:00;1.70;99.90
10472;DHT22;5283;48.876;8.962;2024-03-08T01:04:27;1.70;99.90
10472;DHT22;5283;48.876;8.962;2024-03-08T01:06:59;1.60;99.90
10472;DHT22;5283;48.876;8.962;2024-03-08T01:09:26;1.60;99.90
10472;DHT22;5283;48.876;8.962;2024-03-08T01:11:56;1.60;99.90
10472;DHT22;5283;48.876;8.962;2024-03-08T01:14:24;1.50;99.90
10472;DHT22;5283;48.876;8.962;2024-03-08T01:16:52;1.30;99.90
10472;DHT22;5283;48.876;8.962;2024-03-08T01:19:19;1.00;99.90
10472;DHT22;5283;48.876;8.962;2024-03-08T01:21:45;0.80;99.90
10472;DHT22;5283;48.876;8.962;2024-03-08T01:24:12;0.50;99.90
10472;DHT22;5283;48.876;8.962;2024-03-08T01:26:39;0.20;99.90
10472;DHT22;5283;48.876;8.962;2024-03-08T01:29:06;-0.10;99.90
10472;DHT22;5283;48.876;8.962;2024-03-08T01:31:33;-0.30;99.90
10472;DHT22;5283;48.876;8.962;2024-03-08T01:33:59;-0.30;99.90
10472;DHT22;5283;48.876;8.962;2024-03-08T01:36:27;-0.30;99.90
10472;DHT22;5283;48.876;8.962;2024-03-08T01:38:53;-0.20;99.90
10472;DHT22;5283;48.876;8.962;2024-03-08T01:41:20;0.00;99.90
10472;DHT22;5283;48.876;8.962;2024-03-08T01:43:47;0.00;99.90
10472;DHT22;5283;48.876;8.962;2024-03-08T01:46:17;-0.10;99.90
10472;DHT22;5283;48.876;8.962;2024-03-08T01:48:45;-0.10;99.90
10472;DHT22;5283;48.876;8.962;2024-03-08T01:51:12;-0.20;99.90
10472;DHT22;5283;48.876;8.962;2024-03-08T01:53:42;-0.30;99.90
10472;DHT22;5283;48.876;8.962;2024-03-08T01:56:12;-0.20;99.90
10472;DHT22;5283;48.876;8.962;2024-03-08T01:58:42;-0.20;99.90
10472;DHT22;5283;48.876;8.962;2024-03-08T02:01:14;0.00;99.90
10472;DHT22;5283;48.876;8.962;2024-03-08T02:03:42;0.10;99.90
10472;DHT22;5283;48.876;8.962;2024-03-08T02:06:13;0.20;99.90
10472;DHT22;5283;48.876;8.962;2024-03-08T02:08:43;0.40;99.90
10472;DHT22;5283;48.876;8.962;2024-03-08T02:11:11;0.40;99.90
10472;DHT22;5283;48.876;8.962;2024-03-08T02:13:38;0.50;99.90
10472;DHT22;5283;48.876;8.962;2024-03-08T02:16:05;0.50;99.90
10472;DHT22;5283;48.876;8.962;2024-03-08T02:18:34;0.40;99.90
10472;DHT22;5283;48.876;8.962;2024-03-08T02:21:02;0.30;99.90
10472;DHT22;5283;48.876;8.962;2024-03-08T02:23:29;0.30;99.90
10472;DHT22;5283;48.876;8.962;2024-03-08T02:25:57;0.30;99.90
10472;DHT22;5283;48.876;8.962;2024-03-08T02:28:24;0.40;99.90
10472;DHT22;5283;48.876;8.962;2024-03-08T02:30:52;0.30;99.90
10472;DHT22;5283;48.876;8.962;2024-03-08T02:33:26;0.30;99.90
10472;DHT22;5283;48.876;8.962;2024-03-08T02:35:53;0.20;99.90
10472;DHT22;5283;48.876;8.962;2024-03-08T02:38:22;0.20;99.90
10472;DHT22;5283;48.876;8.962;2024-03-08T02:40:50;0.20;99.90
10472;DHT22;5283;48.876;8.962;2024-03-08T02:43:19;-0.10;99.90
10472;DHT22;5283;48.876;8.962;2024-03-08T02:45:46;-0.20;99.90
10472;DHT22;5283;48.876;8.962;2024-03-08T02:48:14;-0.40;99.90
10472;DHT22;5283;48.876;8.962;2024-03-08T02:50:41;-0.50;99.90
10472;DHT22;5283;48.876;8.962;2024-03-08T02:53:09;-0.70;99.90
10472;DHT22;5283;48.876;8.962;2024-03-08T02:55:37;-0.80;99.90
10472;DHT22;5283;48.876;8.962;2024-03-08T02:58:04;-1.00;99.90
10472;DHT22;5283;48.876;8.962;2024-03-08T03:00:31;-1.00;99.90
10472;DHT22;5283;48.876;8.962;2024-03-08T03:02:59;-1.00;99.90
10472;DHT22;5283;48.876;8.962;2024-03-08T03:05:25;-0.90;99.90
10472;DHT22;5283;48.876;8.962;2024-03-08T03:07:52;-0.80;99.90
10472;DHT22;5283;48.876;8.962;2024-03-08T03:10:19;-0.60;99.90
10472;DHT22;5283;48.876;8.962;2024-03-08T03:12:48;-0.60;99.90
10472;DHT22;5283;48.876;8.962;2024-03-08T03:15:15;-0.60;99.90
10472;DHT22;5283;48.876;8.962;2024-03-08T03:17:49;-0.60;99.90
10472;DHT22;5283;48.876;8.962;2024-03-08T03:20:19;-0.60;99.90
10472;DHT22;5283;48.876;8.962;2024-03-08T03:23:07;-0.90;99.90
10472;DHT22;5283;48.876;8.962;2024-03-08T03:25:35;-1.20;99.90
10472;DHT22;5283;48.876;8.962;2024-03-08T03:28:02;-1.40;99.90
10472;DHT22;5283;48.876;8.962;2024-03-08T03:30:29;-1.50;99.90
10472;DHT22;5283;48.876;8.962;2024-03-08T03:33:03;-1.70;99.90
10472;DHT22;5283;48.876;8.962;2024-03-08T03:35:41;-1.80;99.90
10472;DHT22;5283;48.876;8.962;2024-03-08T03:38:09;-1.80;99.90
10472;DHT22;5283;48.876;8.962;2024-03-08T03:40:37;-1.80;99.90
10472;DHT22;5283;48.876;8.962;2024-03-08T03:43:04;-1.70;99.90
10472;DHT22;5283;48.876;8.962;2024-03-08T03:45:31;-1.70;99.90
10472;DHT22;5283;48.876;8.962;2024-03-08T03:48:05;-1.40;99.90
10472;DHT22;5283;48.876;8.962;2024-03-08T03:50:39;-1.30;99.90
10472;DHT22;5283;48.876;8.962;2024-03-08T03:53:06;-1.40;99.90
10472;DHT22;5283;48.876;8.962;2024-03-08T03:55:36;-1.50;99.90
10472;DHT22;5283;48.876;8.962;2024-03-08T03:58:04;-1.60;99.90
10472;DHT22;5283;48.876;8.962;2024-03-08T04:00:31;-1.70;99.90
10472;DHT22;5283;48.876;8.962;2024-03-08T04:02:58;-1.90;99.90
10472;DHT22;5283;48.876;8.962;2024-03-08T04:05:27;-2.00;99.90
10472;DHT22;5283;48.876;8.962;2024-03-08T04:07:54;-2.00;99.90
10472;DHT22;5283;48.876;8.962;2024-03-08T04:10:21;-2.10;99.90
10472;DHT22;5283;48.876;8.962;2024-03-08T04:12:47;-2.10;99.90
10472;DHT22;5283;48.876;8.962;2024-03-08T04:15:14;-2.10;99.90
10472;DHT22;5283;48.876;8.962;2024-03-08T04:17:41;-2.20;99.90
10472;DHT22;5283;48.876;8.962;2024-03-08T04:20:08;-2.20;99.90
10472;DHT22;5283;48.876;8.962;2024-03-08T04:22:37;-2.10;99.90
10472;DHT22;5283;48.876;8.962;2024-03-08T04:25:04;-2.00;99.90
10472;DHT22;5283;48.876;8.962;2024-03-08T04:27:33;-2.00;99.90
10472;DHT22;5283;48.876;8.962;2024-03-08T04:30:00;-1.80;99.90
10472;DHT22;5283;48.876;8.962;2024-03-08T04:32:27;-1.70;99.90
10472;DHT22;5283;48.876;8.962;2024-03-08T04:34:56;-1.60;99.90
10472;DHT22;5283;48.876;8.962;2024-03-08T04:37:23;-1.80;99.90
10472;DHT22;5283;48.876;8.962;2024-03-08T04:39:50;-2.00;99.90
10472;DHT22;5283;48.876;8.962;2024-03-08T04:42:17;-2.10;99.90
10472;DHT22;5283;48.876;8.962;2024-03-08T04:44:44;-2.20;99.90
10472;DHT22;5283;48.876;8.962;2024-03-08T04:47:11;-2.20;99.90
10472;DHT22;5283;48.876;8.962;2024-03-08T04:49:38;-2.30;99.90
10472;DHT22;5283;48.876;8.962;2024-03-08T04:52:05;-2.20;99.90
10472;DHT22;5283;48.876;8.962;2024-03-08T04:54:33;-2.40;99.90
10472;DHT22;5283;48.876;8.962;2024-03-08T04:57:01;-2.20;99.90
10472;DHT22;5283;48.876;8.962;2024-03-08T04:59:29;-2.20;99.90
10472;DHT22;5283;48.876;8.962;2024-03-08T05:01:56;-2.30;99.90
10472;DHT22;5283;48.876;8.962;2024-03-08T05:04:22;-2.30;99.90
10472;DHT22;5283;48.876;8.962;2024-03-08T05:06:49;-2.40;99.90
10472;DHT22;5283;48.876;8.962;2024-03-08T05:09:16;-2.50;99.90
10472;DHT22;5283;48.876;8.962;2024-03-08T05:11:43;-2.30;99.90
10472;DHT22;5283;48.876;8.962;2024-03-08T05:14:11;-2.20;99.90
10472;DHT22;5283;48.876;8.962;2024-03-08T05:16:39;-2.10;99.90
10472;DHT22;5283;48.876;8.962;2024-03-08T05:19:06;-2.20;99.90
10472;DHT22;5283;48.876;8.962;2024-03-08T05:21:33;-2.10;99.90
10472;DHT22;5283;48.876;8.962;2024-03-08T05:24:00;-2.20;99.90
10472;DHT22;5283;48.876;8.962;2024-03-08T05:26:27;-2.30;99.90
10472;DHT22;5283;48.876;8.962;2024-03-08T05:28:53;-2.30;99.90
10472;DHT22;5283;48.876;8.962;2024-03-08T05:31:21;-2.30;99.90
10472;DHT22;5283;48.876;8.962;2024-03-08T05:33:50;-2.40;99.90
10472;DHT22;5283;48.876;8.962;2024-03-08T05:36:17;-2.50;99.90
10472;DHT22;5283;48.876;8.962;2024-03-08T05:38:44;-2.60;99.90
10472;DHT22;5283;48.876;8.962;2024-03-08T05:41:11;-2.80;99.90
10472;DHT22;5283;48.876;8.962;2024-03-08T05:43:41;-2.80;99.90
10472;DHT22;5283;48.876;8.962;2024-03-08T05:46:08;-3.00;99.90
10472;DHT22;5283;48.876;8.962;2024-03-08T05:48:35;-3.00;99.90
10472;DHT22;5283;48.876;8.962;2024-03-08T05:51:01;-3.20;99.90
10472;DHT22;5283;48.876;8.962;2024-03-08T05:53:28;-3.00;99.90
10472;DHT22;5283;48.876;8.962;2024-03-08T05:55:58;-3.00;99.90
10472;DHT22;5283;48.876;8.962;2024-03-08T05:58:25;-2.90;99.90
10472;DHT22;5283;48.876;8.962;2024-03-08T06:00:52;-2.80;99.90
10472;DHT22;5283;48.876;8.962;2024-03-08T06:03:19;-2.70;99.90
10472;DHT22;5283;48.876;8.962;2024-03-08T06:05:49;-2.50;99.90
10472;DHT22;5283;48.876;8.962;2024-03-08T06:08:16;-2.60;99.90
10472;DHT22;5283;48.876;8.962;2024-03-08T06:10:43;-2.60;99.90
10472;DHT22;5283;48.876;8.962;2024-03-08T06:13:09;-2.70;99.90
10472;DHT22;5283;48.876;8.962;2024-03-08T06:15:38;-2.80;99.90
10472;DHT22;5283;48.876;8.962;2024-03-08T06:18:05;-2.80;99.90
10472;DHT22;5283;48.876;8.962;2024-03-08T06:20:32;-2.80;99.90
10472;DHT22;5283;48.876;8.962;2024-03-08T06:22:59;-2.70;99.90
10472;DHT22;5283;48.876;8.962;2024-03-08T06:25:26;-2.60;99.90
10472;DHT22;5283;48.876;8.962;2024-03-08T06:27:52;-2.60;99.90
10472;DHT22;5283;48.876;8.962;2024-03-08T06:30:19;-2.40;99.90
10472;DHT22;5283;48.876;8.962;2024-03-08T06:32:47;-2.40;99.90
10472;DHT22;5283;48.876;8.962;2024-03-08T06:35:15;-2.40;99.90
10472;DHT22;5283;48.876;8.962;2024-03-08T06:37:42;-2.40;99.90
10472;DHT22;5283;48.876;8.962;2024-03-08T06:40:11;-2.20;99.90
10472;DHT22;5283;48.876;8.962;2024-03-08T06:42:40;-2.00;99.90
10472;DHT22;5283;48.876;8.962;2024-03-08T06:45:08;-1.80;99.90
10472;DHT22;5283;48.876;8.962;2024-03-08T06:47:36;-1.60;99.90
10472;DHT22;5283;48.876;8.962;2024-03-08T06:50:06;-1.50;99.90
10472;DHT22;5283;48.876;8.962;2024-03-08T06:52:34;-1.50;99.90
10472;DHT22;5283;48.876;8.962;2024-03-08T06:55:01;-1.40;99.90
10472;DHT22;5283;48.876;8.962;2024-03-08T06:57:28;-1.40;99.90
10472;DHT22;5283;48.876;8.962;2024-03-08T06:59:56;-1.30;99.90
10472;DHT22;5283;48.876;8.962;2024-03-08T07:02:23;-1.20;99.90
10472;DHT22;5283;48.876;8.962;2024-03-08T07:04:53;-1.10;99.90
10472;DHT22;5283;48.876;8.962;2024-03-08T07:07:20;-1.00;99.90
10472;DHT22;5283;48.876;8.962;2024-03-08T07:09:48;-0.80;99.90
10472;DHT22;5283;48.876;8.962;2024-03-08T07:12:16;-0.80;99.90
10472;DHT22;5283;48.876;8.962;2024-03-08T07:14:42;-0.70;99.90
10472;DHT22;5283;48.876;8.962;2024-03-08T07:17:12;-0.50;99.90
10472;DHT22;5283;48.876;8.962;2024-03-08T07:19:39;-0.50;99.90
10472;DHT22;5283;48.876;8.962;2024-03-08T07:22:06;-0.30;99.90
10472;DHT22;5283;48.876;8.962;2024-03-08T07:24:36;-0.20;99.90
10472;DHT22;5283;48.876;8.962;2024-03-08T07:27:21;-0.10;99.90
10472;DHT22;5283;48.876;8.962;2024-03-08T07:29:48;0.00;99.90
10472;DHT22;5283;48.876;8.962;2024-03-08T07:32:14;0.10;99.90
10472;DHT22;5283;48.876;8.962;2024-03-08T07:34:48;0.20;99.90
10472;DHT22;5283;48.876;8.962;2024-03-08T07:37:17;0.50;99.90
10472;DHT22;5283;48.876;8.962;2024-03-08T07:39:45;0.70;99.90
10472;DHT22;5283;48.876;8.962;2024-03-08T07:42:12;1.00;99.90
10472;DHT22;5283;48.876;8.962;2024-03-08T07:44:39;1.30;99.90
10472;DHT22;5283;48.876;8.962;2024-03-08T07:47:06;1.50;99.90
10472;DHT22;5283;48.876;8.962;2024-03-08T07:49:36;1.80;99.90
10472;DHT22;5283;48.876;8.962;2024-03-08T07:52:04;2.10;99.90
10472;DHT22;5283;48.876;8.962;2024-03-08T07:54:31;2.10;99.90
10472;DHT22;5283;48.876;8.962;2024-03-08T07:56:58;2.30;99.90
10472;DHT22;5283;48.876;8.962;2024-03-08T07:59:24;2.60;99.90
10472;DHT22;5283;48.876;8.962;2024-03-08T08:01:51;2.60;99.90
10472;DHT22;5283;48.876;8.962;2024-03-08T08:04:18;2.80;99.90
10472;DHT22;5283;48.876;8.962;2024-03-08T08:06:45;2.90;99.90
10472;DHT22;5283;48.876;8.962;2024-03-08T08:09:12;3.10;99.90
10472;DHT22;5283;48.876;8.962;2024-03-08T08:11:42;3.10;99.90
10472;DHT22;5283;48.876;8.962;2024-03-08T08:14:11;3.20;99.90
10472;DHT22;5283;48.876;8.962;2024-03-08T08:16:38;3.30;99.90
10472;DHT22;5283;48.876;8.962;2024-03-08T08:19:07;3.40;99.90
10472;DHT22;5283;48.876;8.962;2024-03-08T08:21:34;3.60;99.90
10472;DHT22;5283;48.876;8.962;2024-03-08T08:24:03;3.80;99.90
10472;DHT22;5283;48.876;8.962;2024-03-08T08:26:30;3.90;99.90
10472;DHT22;5283;48.876;8.962;2024-03-08T08:28:58;3.90;99.90
10472;DHT22;5283;48.876;8.962;2024-03-08T08:31:26;4.00;99.90
10472;DHT22;5283;48.876;8.962;2024-03-08T08:33:52;4.00;99.90
10472;DHT22;5283;48.876;8.962;2024-03-08T08:36:25;4.20;99.90
10472;DHT22;5283;48.876;8.962;2024-03-08T08:38:52;4.50;99.90
10472;DHT22;5283;48.876;8.962;2024-03-08T08:41:22;4.60;99.90
10472;DHT22;5283;48.876;8.962;2024-03-08T08:43:49;4.70;99.90
10472;DHT22;5283;48.876;8.962;2024-03-08T08:46:19;4.70;99.90
10472;DHT22;5283;48.876;8.962;2024-03-08T08:48:47;4.80;99.90
10472;DHT22;5283;48.876;8.962;2024-03-08T08:51:14;4.90;99.90
10472;DHT22;5283;48.876;8.962;2024-03-08T08:53:42;5.00;99.90
10472;DHT22;5283;48.876;8.962;2024-03-08T08:56:13;5.10;99.90
10472;DHT22;5283;48.876;8.962;2024-03-08T08:58:40;5.00;99.90
10472;DHT22;5283;48.876;8.962;2024-03-08T09:01:10;4.90;99.90
10472;DHT22;5283;48.876;8.962;2024-03-08T09:03:38;5.00;99.90
10472;DHT22;5283;48.876;8.962;2024-03-08T09:06:07;4.90;99.90
10472;DHT22;5283;48.876;8.962;2024-03-08T09:08:37;4.90;99.90
10472;DHT22;5283;48.876;8.962;2024-03-08T09:11:04;4.90;99.90
10472;DHT22;5283;48.876;8.962;2024-03-08T09:13:32;5.10;99.90
10472;DHT22;5283;48.876;8.962;2024-03-08T09:16:02;5.10;99.90
10472;DHT22;5283;48.876;8.962;2024-03-08T09:18:29;5.20;99.90
10472;DHT22;5283;48.876;8.962;2024-03-08T09:20:56;5.20;99.90
10472;DHT22;5283;48.876;8.962;2024-03-08T09:23:22;5.30;99.90
10472;DHT22;5283;48.876;8.962;2024-03-08T09:25:49;5.20;99.90
10472;DHT22;5283;48.876;8.962;2024-03-08T09:28:16;5.20;99.90
10472;DHT22;5283;48.876;8.962;2024-03-08T09:30:43;5.30;99.90
10472;DHT22;5283;48.876;8.962;2024-03-08T09:33:14;5.40;99.90
10472;DHT22;5283;48.876;8.962;2024-03-08T09:35:46;5.30;99.90
10472;DHT22;5283;48.876;8.962;2024-03-08T09:38:17;5.20;99.90
10472;DHT22;5283;48.876;8.962;2024-03-08T09:40:47;5.20;99.90
10472;DHT22;5283;48.876;8.962;2024-03-08T09:43:14;5.20;99.90
10472;DHT22;5283;48.876;8.962;2024-03-08T09:45:42;5.30;99.90
10472;DHT22;5283;48.876;8.962;2024-03-08T09:48:12;5.20;99.90
10472;DHT22;5283;48.876;8.962;2024-03-08T09:50:43;5.20;99.90
10472;DHT22;5283;48.876;8.962;2024-03-08T09:53:13;5.20;99.90
10472;DHT22;5283;48.876;8.962;2024-03-08T09:55:40;5.30;99.90
10472;DHT22;5283;48.876;8.962;2024-03-08T09:58:15;5.40;99.90
10472;DHT22;5283;48.876;8.962;2024-03-08T10:00:57;5.50;99.90
10472;DHT22;5283;48.876;8.962;2024-03-08T10:03:24;5.70;99.90
10472;DHT22;5283;48.876;8.962;2024-03-08T10:05:53;5.70;99.90
10472;DHT22;5283;48.876;8.962;2024-03-08T10:08:23;5.60;99.90
10472;DHT22;5283;48.876;8.962;2024-03-08T10:10:51;5.50;99.90
10472;DHT22;5283;48.876;8.962;2024-03-08T10:13:18;5.40;99.90
10472;DHT22;5283;48.876;8.962;2024-03-08T10:15:46;5.30;99.90
10472;DHT22;5283;48.876;8.962;2024-03-08T10:18:14;5.40;99.90
10472;DHT22;5283;48.876;8.962;2024-03-08T10:20:41;5.40;99.90
10472;DHT22;5283;48.876;8.962;2024-03-08T10:23:08;5.50;99.90
10472;DHT22;5283;48.876;8.962;2024-03-08T10:25:36;5.60;99.90
10472;DHT22;5283;48.876;8.962;2024-03-08T10:28:06;5.70;99.90
10472;DHT22;5283;48.876;8.962;2024-03-08T10:30:34;5.90;99.90
10472;DHT22;5283;48.876;8.962;2024-03-08T10:33:00;6.00;99.90
10472;DHT22;5283;48.876;8.962;2024-03-08T10:35:29;5.90;99.90
10472;DHT22;5283;48.876;8.962;2024-03-08T10:37:56;5.90;99.90
10472;DHT22;5283;48.876;8.962;2024-03-08T10:40:26;5.90;99.90
10472;DHT22;5283;48.876;8.962;2024-03-08T10:42:56;6.10;99.90
10472;DHT22;5283;48.876;8.962;2024-03-08T10:45:38;6.10;99.90
10472;DHT22;5283;48.876;8.962;2024-03-08T10:48:29;6.20;99.90
10472;DHT22;5283;48.876;8.962;2024-03-08T10:51:02;6.40;99.90
10472;DHT22;5283;48.876;8.962;2024-03-08T10:53:29;6.50;99.90
10472;DHT22;5283;48.876;8.962;2024-03-08T10:56:02;6.60;99.90
10472;DHT22;5283;48.876;8.962;2024-03-08T10:58:29;6.70;99.90
10472;DHT22;5283;48.876;8.962;2024-03-08T11:00:56;6.70;99.90
10472;DHT22;5283;48.876;8.962;2024-03-08T11:06:22;6.70;99.90
10472;DHT22;5283;48.876;8.962;2024-03-08T11:08:49;6.70;99.90
10472;DHT22;5283;48.876;8.962;2024-03-08T11:11:30;6.60;99.90
10472;DHT22;5283;48.876;8.962;2024-03-08T11:13:59;6.40;99.90
10472;DHT22;5283;48.876;8.962;2024-03-08T11:19:06;6.70;99.90
10472;DHT22;5283;48.876;8.962;2024-03-08T11:21:37;6.70;99.90
10472;DHT22;5283;48.876;8.962;2024-03-08T11:24:11;6.50;99.90
10472;DHT22;5283;48.876;8.962;2024-03-08T11:26:40;6.40;99.90
10472;DHT22;5283;48.876;8.962;2024-03-08T11:32:11;6.50;99.90
10472;DHT22;5283;48.876;8.962;2024-03-08T11:34:44;6.60;99.90
10472;DHT22;5283;48.876;8.962;2024-03-08T11:37:13;6.70;99.90
10472;DHT22;5283;48.876;8.962;2024-03-08T11:39:48;6.80;99.90
10472;DHT22;5283;48.876;8.962;2024-03-08T11:42:16;6.80;99.90
10472;DHT22;5283;48.876;8.962;2024-03-08T11:44:45;7.10;99.90
10472;DHT22;5283;48.876;8.962;2024-03-08T11:47:11;7.40;99.90
10472;DHT22;5283;48.876;8.962;2024-03-08T11:49:38;7.60;99.90
10472;DHT22;5283;48.876;8.962;2024-03-08T11:52:11;7.60;99.90
10472;DHT22;5283;48.876;8.962;2024-03-08T11:54:48;7.70;99.90
10472;DHT22;5283;48.876;8.962;2024-03-08T11:57:18;7.60;99.90
10472;DHT22;5283;48.876;8.962;2024-03-08T11:59:52;7.50;99.90
10472;DHT22;5283;48.876;8.962;2024-03-08T12:02:20;7.50;99.90
10472;DHT22;5283;48.876;8.962;2024-03-08T12:04:47;7.20;99.90
10472;DHT22;5283;48.876;8.962;2024-03-08T12:07:14;7.20;99.90
10472;DHT22;5283;48.876;8.962;2024-03-08T12:10:14;6.90;99.90
10472;DHT22;5283;48.876;8.962;2024-03-08T12:12:45;6.80;99.90
10472;DHT22;5283;48.876;8.962;2024-03-08T12:15:15;6.80;99.90
10472;DHT22;5283;48.876;8.962;2024-03-08T12:17:42;6.70;99.90
10472;DHT22;5283;48.876;8.962;2024-03-08T12:20:16;6.80;99.90
10472;DHT22;5283;48.876;8.962;2024-03-08T12:22:44;6.80;99.90
10472;DHT22;5283;48.876;8.962;2024-03-08T12:25:12;6.80;99.90
10472;DHT22;5283;48.876;8.962;2024-03-08T12:27:39;6.80;99.90
10472;DHT22;5283;48.876;8.962;2024-03-08T12:30:26;6.90;99.90
10472;DHT22;5283;48.876;8.962;2024-03-08T12:32:55;6.90;99.90
10472;DHT22;5283;48.876;8.962;2024-03-08T12:35:30;7.00;99.90
10472;DHT22;5283;48.876;8.962;2024-03-08T12:37:58;7.10;99.90
10472;DHT22;5283;48.876;8.962;2024-03-08T12:40:30;7.30;99.90
10472;DHT22;5283;48.876;8.962;2024-03-08T12:42:58;7.50;99.90
10472;DHT22;5283;48.876;8.962;2024-03-08T12:45:25;7.70;99.90
10472;DHT22;5283;48.876;8.962;2024-03-08T12:47:55;7.90;99.90
10472;DHT22;5283;48.876;8.962;2024-03-08T12:50:23;7.90;99.90
10472;DHT22;5283;48.876;8.962;2024-03-08T12:52:51;7.90;99.90
10472;DHT22;5283;48.876;8.962;2024-03-08T12:55:21;8.00;99.90
10472;DHT22;5283;48.876;8.962;2024-03-08T12:57:47;8.10;99.90
10472;DHT22;5283;48.876;8.962;2024-03-08T13:00:15;8.10;99.90
10472;DHT22;5283;48.876;8.962;2024-03-08T13:02:50;8.00;99.90
10472;DHT22;5283;48.876;8.962;2024-03-08T13:05:18;7.60;99.90
10472;DHT22;5283;48.876;8.962;2024-03-08T13:07:46;7.40;99.90
10472;DHT22;5283;48.876;8.962;2024-03-08T13:10:14;7.40;99.90
10472;DHT22;5283;48.876;8.962;2024-03-08T13:12:44;7.40;99.90
10472;DHT22;5283;48.876;8.962;2024-03-08T13:15:11;7.40;99.90
10472;DHT22;5283;48.876;8.962;2024-03-08T13:17:42;7.40;99.90
10472;DHT22;5283;48.876;8.962;2024-03-08T13:20:11;7.30;99.90
10472;DHT22;5283;48.876;8.962;2024-03-08T13:22:45;7.40;99.90
10472;DHT22;5283;48.876;8.962;2024-03-08T13:25:12;7.50;99.90
10472;DHT22;5283;48.876;8.962;2024-03-08T13:27:42;7.50;99.90
10472;DHT22;5283;48.876;8.962;2024-03-08T13:30:10;7.60;99.90
10472;DHT22;5283;48.876;8.962;2024-03-08T13:32:41;7.60;99.90
10472;DHT22;5283;48.876;8.962;2024-03-08T13:35:13;7.80;99.90
10472;DHT22;5283;48.876;8.962;2024-03-08T13:37:40;7.90;99.90
10472;DHT22;5283;48.876;8.962;2024-03-08T13:40:08;7.90;99.90
10472;DHT22;5283;48.876;8.962;2024-03-08T13:42:38;8.00;99.90
10472;DHT22;5283;48.876;8.962;2024-03-08T13:45:09;8.00;99.90
10472;DHT22;5283;48.876;8.962;2024-03-08T13:47:39;8.00;99.90
10472;DHT22;5283;48.876;8.962;2024-03-08T13:50:07;8.20;99.90
10472;DHT22;5283;48.876;8.962;2024-03-08T13:52:34;8.30;99.90
10472;DHT22;5283;48.876;8.962;2024-03-08T13:55:01;8.40;99.90
10472;DHT22;5283;48.876;8.962;2024-03-08T13:57:28;8.50;99.90
10472;DHT22;5283;48.876;8.962;2024-03-08T13:59:55;8.60;99.90
10472;DHT22;5283;48.876;8.962;2024-03-08T14:02:22;8.80;99.90
10472;DHT22;5283;48.876;8.962;2024-03-08T14:04:51;9.10;99.90
10472;DHT22;5283;48.876;8.962;2024-03-08T14:07:18;9.60;99.90
10472;DHT22;5283;48.876;8.962;2024-03-08T14:09:44;10.00;99.90
10472;DHT22;5283;48.876;8.962;2024-03-08T14:12:11;10.40;99.90
10472;DHT22;5283;48.876;8.962;2024-03-08T14:14:38;10.80;99.90
10472;DHT22;5283;48.876;8.962;2024-03-08T14:17:05;11.00;99.90
10472;DHT22;5283;48.876;8.962;2024-03-08T14:19:33;11.00;99.90
10472;DHT22;5283;48.876;8.962;2024-03-08T14:22:03;11.10;99.90
10472;DHT22;5283;48.876;8.962;2024-03-08T14:24:31;11.10;99.90
10472;DHT22;5283;48.876;8.962;2024-03-08T14:26:57;11.30;99.90
10472;DHT22;5283;48.876;8.962;2024-03-08T14:29:25;11.70;99.90
10472;DHT22;5283;48.876;8.962;2024-03-08T14:31:56;11.70;99.90
10472;DHT22;5283;48.876;8.962;2024-03-08T14:34:25;11.60;99.90
10472;DHT22;5283;48.876;8.962;2024-03-08T14:36:56;11.70;99.90
10472;DHT22;5283;48.876;8.962;2024-03-08T14:39:23;11.70;99.90
10472;DHT22;5283;48.876;8.962;2024-03-08T14:41:53;11.70;99.90
10472;DHT22;5283;48.876;8.962;2024-03-08T14:44:24;11.40;99.90
10472;DHT22;5283;48.876;8.962;2024-03-08T14:46:52;11.20;99.90
10472;DHT22;5283;48.876;8.962;2024-03-08T14:49:19;11.40;99.90
10472;DHT22;5283;48.876;8.962;2024-03-08T14:51:47;11.30;99.90
10472;DHT22;5283;48.876;8.962;2024-03-08T14:54:14;11.00;99.90
10472;DHT22;5283;48.876;8.962;2024-03-08T14:56:41;11.00;99.90
10472;DHT22;5283;48.876;8.962;2024-03-08T14:59:07;11.20;99.90
10472;DHT22;5283;48.876;8.962;2024-03-08T15:01:35;11.00;99.90
10472;DHT22;5283;48.876;8.962;2024-03-08T15:04:03;10.80;99.90
10472;DHT22;5283;48.876;8.962;2024-03-08T15:06:35;11.10;99.90
10472;DHT22;5283;48.876;8.962;2024-03-08T15:09:04;11.50;99.90
10472;DHT22;5283;48.876;8.962;2024-03-08T15:11:40;11.80;99.90
10472;DHT22;5283;48.876;8.962;2024-03-08T15:14:08;12.00;99.90
10472;DHT22;5283;48.876;8.962;2024-03-08T15:16:38;12.20;99.90
10472;DHT22;5283;48.876;8.962;2024-03-08T15:19:09;12.50;99.90
10472;DHT22;5283;48.876;8.962;2024-03-08T15:21:38;12.40;99.90
10472;DHT22;5283;48.876;8.962;2024-03-08T15:24:06;12.20;99.90
10472;DHT22;5283;48.876;8.962;2024-03-08T15:26:36;12.00;99.90
10472;DHT22;5283;48.876;8.962;2024-03-08T15:29:03;11.90;99.90
10472;DHT22;5283;48.876;8.962;2024-03-08T15:31:31;12.10;99.90
10472;DHT22;5283;48.876;8.962;2024-03-08T15:33:59;12.20;99.90
10472;DHT22;5283;48.876;8.962;2024-03-08T15:36:33;12.20;99.90
10472;DHT22;5283;48.876;8.962;2024-03-08T15:39:00;12.40;99.90
10472;DHT22;5283;48.876;8.962;2024-03-08T15:41:27;12.40;99.90
10472;DHT22;5283;48.876;8.962;2024-03-08T15:43:56;12.40;99.90
10472;DHT22;5283;48.876;8.962;2024-03-08T15:46:23;12.50;99.90
10472;DHT22;5283;48.876;8.962;2024-03-08T15:48:50;12.50;99.90
10472;DHT22;5283;48.876;8.962;2024-03-08T15:51:18;12.30;99.90
10472;DHT22;5283;48.876;8.962;2024-03-08T15:53:46;12.20;99.90
10472;DHT22;5283;48.876;8.962;2024-03-08T15:56:22;12.20;99.90
10472;DHT22;5283;48.876;8.962;2024-03-08T15:58:50;12.00;99.90
10472;DHT22;5283;48.876;8.962;2024-03-08T16:01:18;11.90;99.90
10472;DHT22;5283;48.876;8.962;2024-03-08T16:03:45;11.80;99.90
10472;DHT22;5283;48.876;8.962;2024-03-08T16:06:18;11.80;99.90
10472;DHT22;5283;48.876;8.962;2024-03-08T16:08:49;11.60;99.90
10472;DHT22;5283;48.876;8.962;2024-03-08T16:11:19;11.40;99.90